Time;durP1;ratioP1;P1;durP2;ratioP2;P2;SDS_P1;SDS_P2;PMS_P1;PMS_P2;Temp;Humidity;BMP_temperature;BMP_pressure;BME280_temperature;BME280_humidity;BME280_pressure;Samples;Min_cycle;Max_cycle;Signal;HPM_P1;HPM_P2
2023/08/14 00:00:43;;;;;;;10.43;5.00;;;;;;;21.87;74.93;100992.78;4974877;28;20050;-90
2023/08/14 00:03:09;;;;;;;10.65;5.05;;;;;;;21.88;74.60;100988.16;4973566;28;20023;-90
2023/08/14 00:05:34;;;;;;;11.80;6.22;;;;;;;21.89;74.67;100985.28;4973386;28;20037;-90
2023/08/14 00:08:00;;;;;;;6.97;5.45;;;;;;;21.93;74.68;100996.66;4974984;28;20081;-91
2023/08/14 00:10:26;;;;;;;16.33;5.50;;;;;;;21.91;74.64;100994.13;4974861;28;20033;-89
2023/08/14 00:12:52;;;;;;;12.45;5.47;;;;;;;21.92;74.82;101000.47;4974500;28;20120;-88
2023/08/14 00:15:17;;;;;;;7.43;6.00;;;;;;;21.90;74.43;100991.56;4974351;28;20452;-90
2023/08/14 00:17:43;;;;;;;8.52;5.10;;;;;;;21.73;74.34;100982.69;4974088;28;20027;-90
2023/08/14 00:20:09;;;;;;;7.03;5.40;;;;;;;21.88;73.92;101004.59;4989042;28;20407;-90
2023/08/14 00:22:34;;;;;;;9.07;5.18;;;;;;;21.87;73.93;101006.47;4973385;28;20491;-90
2023/08/14 00:25:03;;;;;;;10.40;5.45;;;;;;;21.95;73.56;101011.06;4973985;28;20034;-90
2023/08/14 00:27:28;;;;;;;11.07;5.88;;;;;;;21.77;73.80;100984.00;4972686;28;20110;-91
2023/08/14 00:29:54;;;;;;;9.27;5.25;;;;;;;21.85;73.86;100985.78;4973853;28;20121;-91
2023/08/14 00:32:19;;;;;;;8.32;5.40;;;;;;;21.84;74.04;100976.72;4972558;28;20693;-91
2023/08/14 00:34:45;;;;;;;6.35;5.25;;;;;;;21.78;74.70;100977.47;4974144;28;20546;-90
2023/08/14 00:37:10;;;;;;;6.20;4.57;;;;;;;21.80;75.21;100980.03;4972354;28;20039;-91
2023/08/14 00:39:36;;;;;;;8.05;5.57;;;;;;;21.77;76.12;100970.31;4974010;28;20545;-91
2023/08/14 00:42:01;;;;;;;6.30;5.10;;;;;;;21.98;76.61;100978.66;4972998;28;20102;-91
2023/08/14 00:44:28;;;;;;;8.82;5.50;;;;;;;22.09;76.88;100989.13;4973078;28;20126;-91
2023/08/14 00:46:54;;;;;;;7.20;5.47;;;;;;;22.02;77.35;100979.09;4978219;28;20046;-90
2023/08/14 00:49:19;;;;;;;11.38;5.57;;;;;;;22.05;77.53;100978.72;4991622;28;20306;-92
2023/08/14 00:51:45;;;;;;;10.90;5.22;;;;;;;22.08;77.11;100970.97;4977492;28;20037;-89
2023/08/14 00:54:10;;;;;;;8.75;5.47;;;;;;;22.11;77.10;100981.53;4972929;28;20062;-92
2023/08/14 00:56:36;;;;;;;8.35;5.47;;;;;;;22.18;77.00;100987.97;4973064;28;20034;-92
2023/08/14 00:59:01;;;;;;;11.90;5.63;;;;;;;22.08;76.96;100961.91;4973193;28;20080;-92
2023/08/14 01:01:27;;;;;;;10.60;5.85;;;;;;;22.09;77.35;100971.81;4973431;28;20399;-92
2023/08/14 01:03:53;;;;;;;10.40;5.88;;;;;;;22.09;77.58;100963.59;4971644;28;20039;-92
2023/08/14 01:06:19;;;;;;;7.80;5.57;;;;;;;22.14;77.44;100966.59;4972992;28;20078;-92
2023/08/14 01:08:45;;;;;;;12.48;5.68;;;;;;;22.17;77.39;100983.53;4972256;28;20110;-92
2023/08/14 01:11:28;;;;;;;12.85;5.75;;;;;;;22.30;76.54;100977.34;4955371;28;20027;-91
2023/08/14 01:14:17;;;;;;;9.10;5.40;;;;;;;22.30;76.42;100979.25;4973368;28;20025;-91
2023/08/14 01:16:49;;;;;;;9.15;5.53;;;;;;;22.25;76.18;100971.63;4973541;28;20085;-91
2023/08/14 01:19:28;;;;;;;12.48;4.80;;;;;;;22.24;75.70;100961.69;4973671;28;20181;-91
2023/08/14 01:22:22;;;;;;;6.43;5.38;;;;;;;22.20;75.08;100963.97;4974491;28;20073;-91
2023/08/14 01:24:59;;;;;;;11.38;5.53;;;;;;;22.28;74.51;100973.97;4988502;28;20023;-93
2023/08/14 01:27:26;;;;;;;10.32;5.88;;;;;;;22.25;74.02;100979.84;4988835;28;20066;-91
2023/08/14 01:30:00;;;;;;;12.93;6.05;;;;;;;22.34;74.99;100977.84;4974319;28;20509;-91
2023/08/14 01:32:26;;;;;;;8.80;5.82;;;;;;;22.39;75.40;100973.47;4973929;28;20566;-92
2023/08/14 01:34:54;;;;;;;6.68;5.35;;;;;;;22.34;75.35;100966.88;4972613;28;20491;-91
2023/08/14 01:37:26;;;;;;;10.00;5.95;;;;;;;22.43;76.46;100985.75;4973095;28;20050;-92
2023/08/14 01:40:30;;;;;;;14.90;6.07;;;;;;;22.43;76.78;100983.00;4988126;28;20031;-91
2023/08/14 01:43:09;;;;;;;8.68;5.50;;;;;;;22.52;77.20;100986.47;4972477;28;20487;-91
2023/08/14 01:45:35;;;;;;;9.57;6.00;;;;;;;22.47;77.51;100989.81;4971722;28;20051;-90
2023/08/14 01:48:02;;;;;;;9.10;6.18;;;;;;;22.49;77.35;100987.72;4973219;28;20086;-89
2023/08/14 01:50:29;;;;;;;13.63;6.28;;;;;;;22.39;77.57;100969.88;4973464;28;20035;-91
2023/08/14 01:52:55;;;;;;;11.85;5.40;;;;;;;22.49;77.00;100982.25;4973618;28;20109;-90
2023/08/14 01:55:24;;;;;;;8.98;5.97;;;;;;;22.46;77.04;100990.84;4974543;28;20035;-90
2023/08/14 01:57:49;;;;;;;6.03;5.43;;;;;;;22.48;76.78;100986.00;4974388;28;20027;-90
2023/08/14 02:00:14;;;;;;;10.40;5.32;;;;;;;22.44;76.52;100968.28;4972391;28;20042;-90
2023/08/14 02:02:40;;;;;;;7.47;5.10;;;;;;;22.43;76.84;100969.31;4975611;28;20027;-89
2023/08/14 02:05:06;;;;;;;7.90;5.70;;;;;;;22.44;76.70;100961.94;4976343;28;20083;-89
2023/08/14 02:07:31;;;;;;;8.75;5.50;;;;;;;22.41;76.69;100974.13;4977251;28;20468;-90
2023/08/14 02:09:56;;;;;;;15.35;5.20;;;;;;;22.44;76.61;100973.75;4980576;28;20034;-90
2023/08/14 02:12:22;;;;;;;8.55;5.60;;;;;;;22.45;76.52;100960.88;4987404;28;20035;-89
2023/08/14 02:14:47;;;;;;;5.78;4.95;;;;;;;22.35;76.59;100952.13;4990241;28;20022;-89
2023/08/14 02:17:13;;;;;;;9.85;5.15;;;;;;;22.49;76.51;100979.50;5001241;28;20019;-87
2023/08/14 02:19:38;;;;;;;11.02;5.10;;;;;;;22.44;76.43;100965.53;5000825;28;20022;-89
2023/08/14 02:22:04;;;;;;;11.48;5.28;;;;;;;22.46;76.43;100968.06;5001049;28;20019;-88
2023/08/14 02:24:29;;;;;;;7.22;4.97;;;;;;;22.48;75.97;100969.56;5001401;28;20053;-90
2023/08/14 02:26:55;;;;;;;15.10;5.78;;;;;;;22.42;76.42;100959.38;4993640;28;20097;-90
2023/08/14 02:29:20;;;;;;;9.90;5.20;;;;;;;22.49;76.41;100965.78;4992994;28;20115;-89
2023/08/14 02:31:47;;;;;;;7.22;4.40;;;;;;;22.50;75.99;100964.75;4976753;28;20457;-89
2023/08/14 02:34:32;;;;;;;10.35;5.25;;;;;;;22.45;75.82;100964.47;4978448;28;20042;-84
2023/08/14 02:36:57;;;;;;;6.35;5.47;;;;;;;22.47;75.72;100962.41;4976659;28;20027;-90
2023/08/14 02:39:23;;;;;;;8.40;4.95;;;;;;;22.57;75.77;100979.38;4977621;28;20035;-89
2023/08/14 02:41:48;;;;;;;9.43;6.07;;;;;;;22.54;75.85;100968.78;4975638;28;20037;-88
2023/08/14 02:44:14;;;;;;;8.30;4.80;;;;;;;22.50;75.59;100962.00;4990974;28;20090;-88
2023/08/14 02:46:39;;;;;;;10.32;5.22;;;;;;;22.59;75.62;100960.84;4977979;28;20037;-89
2023/08/14 02:49:05;;;;;;;6.88;5.15;;;;;;;22.64;75.54;100972.06;4973580;28;20030;-89
2023/08/14 02:51:30;;;;;;;7.68;5.05;;;;;;;22.60;75.13;100964.41;4973136;28;20027;-90
2023/08/14 02:53:55;;;;;;;13.98;6.40;;;;;;;22.63;74.90;100967.63;4972962;28;20023;-88
2023/08/14 02:56:21;;;;;;;9.20;4.55;;;;;;;22.65;74.69;100972.97;4973268;28;20027;-89
2023/08/14 02:58:46;;;;;;;11.65;4.95;;;;;;;22.64;73.96;100957.50;4973494;28;20038;-88
2023/08/14 03:01:12;;;;;;;8.45;5.25;;;;;;;22.57;74.61;100960.16;4973096;28;20026;-87
2023/08/14 03:03:37;;;;;;;8.60;5.00;;;;;;;22.67;74.33;100981.81;4971912;28;20023;-88
2023/08/14 03:06:02;;;;;;;6.78;4.88;;;;;;;22.67;74.22;100971.72;4973365;28;20114;-89
2023/08/14 03:08:28;;;;;;;17.75;5.57;;;;;;;22.65;74.32;100979.28;4973018;28;20035;-87
2023/08/14 03:10:54;;;;;;;7.35;5.35;;;;;;;22.53;74.46;100972.59;4972880;28;20019;-87
2023/08/14 03:13:19;;;;;;;10.48;5.28;;;;;;;22.60;74.64;100984.47;4972785;28;20029;-88
2023/08/14 03:15:44;;;;;;;6.80;5.22;;;;;;;22.55;74.36;100959.53;4972429;28;20502;-88
2023/08/14 03:18:10;;;;;;;8.88;4.97;;;;;;;22.68;73.81;100970.69;4972903;28;20088;-87
2023/08/14 03:20:35;;;;;;;6.28;4.82;;;;;;;22.66;74.04;100967.25;4971898;28;20053;-88
2023/08/14 03:23:01;;;;;;;23.23;8.18;;;;;;;22.66;73.57;100970.00;4972801;28;20402;-87
2023/08/14 03:25:26;;;;;;;14.10;6.95;;;;;;;22.73;73.25;100973.66;4971114;28;20039;-87
2023/08/14 03:27:52;;;;;;;10.95;5.70;;;;;;;22.66;73.05;100970.00;4972552;28;20030;-86
2023/08/14 03:30:17;;;;;;;14.82;5.22;;;;;;;22.77;73.41;100985.97;4972566;28;20041;-85
2023/08/14 03:32:43;;;;;;;6.95;5.45;;;;;;;22.77;73.43;100974.13;4973244;28;20019;-85
2023/08/14 03:35:08;;;;;;;8.77;4.88;;;;;;;22.82;73.56;100976.28;4973666;28;20030;-85
2023/08/14 03:37:34;;;;;;;10.52;6.03;;;;;;;22.77;73.93;100969.50;4983695;28;20046;-86
2023/08/14 03:39:59;;;;;;;9.23;6.38;;;;;;;22.84;74.56;100985.19;4976942;28;20028;-84
2023/08/14 03:42:25;;;;;;;11.02;4.97;;;;;;;22.85;74.41;100971.25;4960975;28;20104;-90
2023/08/14 03:44:51;;;;;;;14.77;5.00;;;;;;;22.83;75.01;100967.00;4961607;28;20491;-89
2023/08/14 03:47:16;;;;;;;12.13;5.10;;;;;;;22.86;74.95;100966.63;4965746;28;20031;-89
2023/08/14 03:49:42;;;;;;;17.98;5.68;;;;;;;22.97;75.15;100979.78;4961533;28;20038;-89
2023/08/14 03:52:07;;;;;;;17.05;5.50;;;;;;;22.90;75.62;100956.97;4953476;28;20023;-88
2023/08/14 03:54:33;;;;;;;16.13;5.20;;;;;;;23.05;75.97;100974.19;4953015;28;20031;-88
2023/08/14 03:56:58;;;;;;;8.55;4.82;;;;;;;22.98;76.73;100962.31;4953507;28;20027;-87
2023/08/14 03:59:23;;;;;;;12.25;5.05;;;;;;;23.08;76.63;100976.53;4951576;28;20074;-88
2023/08/14 04:01:49;;;;;;;9.23;5.93;;;;;;;23.15;77.15;100981.03;4952437;29;20078;-84
2023/08/14 04:04:14;;;;;;;21.88;8.93;;;;;;;23.19;77.17;100973.25;4950951;29;20027;-79
2023/08/14 04:06:42;;;;;;;9.20;5.13;;;;;;;23.19;77.84;100973.25;4951361;28;20471;-80
2023/08/14 04:09:09;;;;;;;13.38;5.22;;;;;;;23.24;78.11;100982.56;4951720;28;20419;-77
2023/08/14 04:11:34;;;;;;;17.23;6.10;;;;;;;23.30;78.32;100983.72;4951501;28;20513;-80
2023/08/14 04:14:00;;;;;;;13.70;6.28;;;;;;;23.38;78.26;100983.56;4957755;28;20031;-85
2023/08/14 04:16:41;;;;;;;15.45;6.93;;;;;;;23.42;78.02;100984.03;4971606;28;20034;-81
2023/08/14 04:19:08;;;;;;;13.63;6.38;;;;;;;23.45;78.32;100979.00;4970867;28;20027;-79
2023/08/14 04:21:34;;;;;;;20.60;6.15;;;;;;;23.58;77.74;100995.56;4971217;28;20130;-79
2023/08/14 04:23:59;;;;;;;16.77;5.97;;;;;;;23.54;77.74;100985.19;4971097;28;20407;-80
2023/08/14 04:26:24;;;;;;;30.15;9.18;;;;;;;23.66;77.77;100998.16;4971065;28;20034;-85
2023/08/14 04:28:50;;;;;;;23.58;6.85;;;;;;;23.63;77.57;100990.31;4971569;28;20035;-86
2023/08/14 04:31:15;;;;;;;14.65;5.55;;;;;;;23.73;77.26;100981.69;4971058;28;20062;-81
2023/08/14 04:33:41;;;;;;;13.32;5.50;;;;;;;23.73;77.53;100985.31;4971223;28;20035;-84
2023/08/14 04:36:06;;;;;;;11.60;5.80;;;;;;;23.83;77.39;100999.53;4971390;28;20066;-75
2023/08/14 04:38:31;;;;;;;17.45;6.22;;;;;;;23.90;77.19;101001.47;4985070;28;20051;-77
2023/08/14 04:40:57;;;;;;;10.55;5.90;;;;;;;23.95;77.18;100993.47;4969280;28;20113;-76
2023/08/14 04:43:22;;;;;;;20.80;6.78;;;;;;;24.06;76.63;100998.41;4970164;28;20031;-80
2023/08/14 04:45:48;;;;;;;8.88;6.28;;;;;;;24.20;75.79;101000.19;4970730;28;20030;-77
2023/08/14 04:48:13;;;;;;;10.25;5.70;;;;;;;24.27;75.79;101001.06;4970457;28;20546;-79
2023/08/14 04:50:39;;;;;;;13.38;5.93;;;;;;;24.35;75.85;100990.72;4970018;28;20037;-90
2023/08/14 04:53:04;;;;;;;14.50;5.00;;;;;;;24.38;75.46;100995.81;4971734;28;20117;-81
2023/08/14 04:55:29;;;;;;;8.57;5.68;;;;;;;24.41;75.17;100997.31;4971860;28;20034;-76
2023/08/14 04:57:55;;;;;;;23.63;6.13;;;;;;;24.49;75.29;100993.53;4971577;28;20022;-78
2023/08/14 05:00:20;;;;;;;13.77;6.18;;;;;;;24.46;75.41;100992.06;4970765;28;20407;-85
2023/08/14 05:02:46;;;;;;;23.77;6.25;;;;;;;24.58;75.27;101000.56;4971579;28;20035;-84
2023/08/14 05:05:11;;;;;;;8.70;5.70;;;;;;;24.67;74.75;101004.81;4970622;28;20030;-79
2023/08/14 05:07:37;;;;;;;12.55;5.50;;;;;;;24.75;74.40;101002.72;4970059;28;20046;-83
2023/08/14 05:10:02;;;;;;;16.50;5.30;;;;;;;24.84;74.29;101015.25;4970409;28;20034;-82
2023/08/14 05:12:28;;;;;;;11.02;6.20;;;;;;;24.89;73.88;101000.88;4970389;28;20019;-82
2023/08/14 05:14:53;;;;;;;15.18;5.60;;;;;;;24.96;73.65;101017.38;4970491;28;20086;-85
2023/08/14 05:17:19;;;;;;;24.50;8.00;;;;;;;25.03;73.30;101007.25;4970780;28;20034;-89
2023/08/14 05:19:44;;;;;;;25.45;5.70;;;;;;;25.00;73.43;101013.16;4969655;28;20037;-87
2023/08/14 05:22:09;;;;;;;38.95;6.85;;;;;;;25.09;73.23;101022.91;4971529;28;20452;-89
2023/08/14 05:24:35;;;;;;;18.58;5.53;;;;;;;25.06;73.10;101009.56;4970042;28;20034;-88
2023/08/14 05:27:00;;;;;;;15.93;5.35;;;;;;;25.11;72.72;101001.53;4971800;28;20113;-88
2023/08/14 05:29:26;;;;;;;20.50;7.13;;;;;;;25.16;72.78;101001.75;4972875;28;20041;-90
2023/08/14 05:31:51;;;;;;;12.27;5.38;;;;;;;25.31;72.50;101016.16;4970782;28;20058;-85
2023/08/14 05:34:17;;;;;;;9.48;5.03;;;;;;;25.34;71.83;101015.75;4970486;28;20042;-85
2023/08/14 05:36:42;;;;;;;11.88;6.03;;;;;;;25.42;71.64;101021.03;4970144;28;20398;-85
2023/08/14 05:39:10;;;;;;;21.23;7.47;;;;;;;25.47;72.18;101024.00;4969790;28;20070;-81
2023/08/14 05:41:36;;;;;;;8.10;5.15;;;;;;;25.49;72.18;101013.66;4969544;28;20113;-84
2023/08/14 05:44:01;;;;;;;20.70;6.35;;;;;;;25.52;72.17;101020.63;4971402;28;20027;-84
2023/08/14 05:46:27;;;;;;;20.13;6.40;;;;;;;25.58;72.06;101006.88;4973861;28;20035;-84
2023/08/14 05:48:52;;;;;;;13.75;5.35;;;;;;;25.73;72.04;101018.50;4974311;28;20029;-83
2023/08/14 05:51:17;;;;;;;30.63;7.00;;;;;;;25.77;71.67;101017.03;4973739;28;20022;-87
2023/08/14 05:53:43;;;;;;;23.50;6.70;;;;;;;25.85;70.60;101014.03;4974107;28;20023;-81
2023/08/14 05:56:08;;;;;;;18.88;5.35;;;;;;;26.02;69.97;101013.56;4973723;28;20050;-82
2023/08/14 05:58:34;;;;;;;26.90;5.47;;;;;;;26.08;70.20;101010.81;4974007;28;20057;-82
2023/08/14 06:00:59;;;;;;;13.23;4.85;;;;;;;26.20;68.57;101017.38;4971974;28;20041;-76
2023/08/14 06:03:25;;;;;;;8.73;5.20;;;;;;;26.26;68.79;101015.66;4973278;28;20033;-77
2023/08/14 06:05:50;;;;;;;21.63;6.43;;;;;;;26.33;68.22;101013.69;4973262;28;20034;-81
2023/08/14 06:08:16;;;;;;;18.48;5.15;;;;;;;26.43;67.37;101022.34;4973336;28;20037;-76
2023/08/14 06:10:41;;;;;;;16.00;6.00;;;;;;;26.55;66.84;101025.28;4973519;28;20035;-76
2023/08/14 06:13:08;;;;;;;12.02;5.22;;;;;;;26.53;66.51;101011.72;4973590;28;20018;-81
2023/08/14 06:15:34;;;;;;;28.33;7.63;;;;;;;26.65;64.31;101025.66;4973236;28;20110;-80
2023/08/14 06:17:59;;;;;;;22.10;5.35;;;;;;;26.70;62.53;101001.84;4973367;28;20030;-78
2023/08/14 06:20:25;;;;;;;29.77;6.28;;;;;;;26.89;59.86;101020.25;4972977;28;20410;-80
2023/08/14 06:22:50;;;;;;;37.47;7.78;;;;;;;26.99;58.43;101030.81;4973288;28;20026;-77
2023/08/14 06:25:17;;;;;;;25.35;6.28;;;;;;;27.01;59.30;101035.03;4972041;28;20023;-78
2023/08/14 06:27:42;;;;;;;23.10;6.10;;;;;;;27.00;59.22;101027.81;4973243;28;20027;-77
2023/08/14 06:30:09;;;;;;;28.95;5.68;;;;;;;27.12;58.89;101032.63;4973264;28;20054;-80
2023/08/14 06:32:35;;;;;;;25.63;6.05;;;;;;;27.18;58.77;101031.75;4970502;28;20045;-78
2023/08/14 06:35:00;;;;;;;32.97;5.35;;;;;;;27.09;58.54;101022.03;4972610;28;20030;-79
2023/08/14 06:37:25;;;;;;;26.05;5.45;;;;;;;27.19;59.10;101038.94;4972982;28;20121;-77
2023/08/14 06:39:51;;;;;;;32.17;6.22;;;;;;;27.31;57.97;101037.13;4972194;28;20030;-77
2023/08/14 06:42:16;;;;;;;36.95;7.35;;;;;;;27.33;58.90;101035.03;4972224;28;20058;-77
2023/08/14 06:44:42;;;;;;;11.45;6.65;;;;;;;27.39;56.53;101029.44;4972232;28;20022;-78
2023/08/14 06:47:07;;;;;;;53.42;7.80;;;;;;;27.47;57.13;101034.72;4972460;28;20089;-79
2023/08/14 06:49:33;;;;;;;48.90;7.82;;;;;;;27.43;56.50;101025.19;4971317;28;20030;-77
2023/08/14 06:51:58;;;;;;;27.73;7.15;;;;;;;27.63;56.36;101038.84;4972507;28;20450;-78
2023/08/14 06:54:24;;;;;;;19.30;5.55;;;;;;;27.73;56.10;101058.53;4971820;28;20034;-78
2023/08/14 06:56:50;;;;;;;36.03;6.00;;;;;;;27.72;55.35;101029.19;4972242;28;20035;-78
2023/08/14 06:59:15;;;;;;;24.50;4.80;;;;;;;27.67;55.53;101034.56;4972445;28;20046;-78
2023/08/14 07:01:41;;;;;;;20.40;5.82;;;;;;;27.75;54.96;101033.41;4972883;28;20026;-77
2023/08/14 07:04:08;;;;;;;20.33;5.80;;;;;;;27.84;55.02;101055.00;4975923;28;20509;-78
2023/08/14 07:06:34;;;;;;;38.42;7.10;;;;;;;27.90;54.86;101051.34;4974695;28;20038;-76
2023/08/14 07:09:00;;;;;;;20.98;6.13;;;;;;;27.92;54.11;101040.88;4974193;28;20110;-79
2023/08/14 07:11:26;;;;;;;28.85;11.32;;;;;;;28.02;54.20;101043.13;4970902;28;20056;-78
2023/08/14 07:13:51;;;;;;;32.08;7.18;;;;;;;28.17;52.91;101024.25;4972701;28;20515;-77
2023/08/14 07:16:17;;;;;;;35.00;7.75;;;;;;;28.30;52.53;101048.16;4972411;28;20045;-78
2023/08/14 07:18:42;;;;;;;16.50;4.65;;;;;;;28.41;51.92;101030.78;4972259;28;20023;-76
2023/08/14 07:21:08;;;;;;;15.93;5.82;;;;;;;28.54;50.45;101036.16;4971650;28;20057;-78
2023/08/14 07:23:33;;;;;;;34.42;8.43;;;;;;;28.71;49.95;101042.78;4971610;28;20027;-77
2023/08/14 07:26:03;;;;;;;13.10;4.78;;;;;;;28.76;49.89;101042.94;4971625;28;20061;-80
2023/08/14 07:28:29;;;;;;;10.32;4.95;;;;;;;28.80;48.83;101044.16;4971953;28;20034;-78
2023/08/14 07:30:54;;;;;;;26.15;6.70;;;;;;;28.81;48.67;101031.13;4971658;28;20042;-78
2023/08/14 07:33:20;;;;;;;22.63;6.10;;;;;;;28.92;48.36;101031.22;4971722;28;20030;-79
2023/08/14 07:35:45;;;;;;;18.70;5.15;;;;;;;28.92;47.23;101017.34;4971543;28;20035;-79
2023/08/14 07:38:12;;;;;;;26.55;6.63;;;;;;;29.06;47.57;101031.84;4971486;28;20463;-78
2023/08/14 07:40:38;;;;;;;22.70;6.70;;;;;;;29.08;47.11;101044.38;4971725;28;20468;-78
2023/08/14 07:43:04;;;;;;;13.55;4.25;;;;;;;29.07;46.45;101017.75;4971331;28;20062;-78
2023/08/14 07:45:29;;;;;;;13.65;5.03;;;;;;;29.21;46.44;101035.00;4971509;28;20046;-76
2023/08/14 07:47:54;;;;;;;25.33;6.28;;;;;;;29.14;46.69;101007.41;4971371;28;20496;-77
2023/08/14 07:50:20;;;;;;;20.98;4.97;;;;;;;29.20;45.79;101002.84;4971404;28;20031;-78
2023/08/14 07:52:45;;;;;;;18.83;5.60;;;;;;;29.26;46.17;101018.56;4971185;28;20557;-79
2023/08/14 07:55:11;;;;;;;28.95;5.28;;;;;;;29.36;45.54;101034.59;4971860;28;20482;-78
2023/08/14 07:57:36;;;;;;;20.10;5.50;;;;;;;29.28;46.16;101026.63;4969964;28;20035;-76
2023/08/14 08:00:07;;;;;;;16.95;4.93;;;;;;;29.24;45.91;101042.03;4971545;28;20080;-77
2023/08/14 08:02:32;;;;;;;37.65;6.35;;;;;;;29.31;46.49;101026.16;4971509;28;20030;-76
2023/08/14 08:04:58;;;;;;;18.33;5.40;;;;;;;29.39;45.97;101032.19;4970887;28;20027;-77
2023/08/14 08:07:23;;;;;;;21.42;5.43;;;;;;;29.53;45.82;101022.59;4970383;28;20027;-77
2023/08/14 08:09:48;;;;;;;35.58;5.97;;;;;;;29.59;45.36;101035.50;4971088;28;20027;-76
2023/08/14 08:12:15;;;;;;;25.35;6.72;;;;;;;29.57;45.51;101029.31;4970882;28;20384;-77
2023/08/14 08:14:40;;;;;;;26.70;5.53;;;;;;;29.60;45.22;101037.16;4970884;28;20023;-77
2023/08/14 08:17:06;;;;;;;32.78;5.57;;;;;;;29.63;45.20;101022.00;4971108;28;20105;-80
2023/08/14 08:19:31;;;;;;;27.02;6.10;;;;;;;29.66;45.00;101038.16;4970839;28;20379;-77
2023/08/14 08:21:57;;;;;;;15.90;5.00;;;;;;;29.78;45.14;101046.47;4970706;28;20042;-77
2023/08/14 08:24:22;;;;;;;34.67;6.43;;;;;;;29.91;44.38;101057.34;4971267;28;20485;-77
2023/08/14 08:26:48;;;;;;;12.95;4.32;;;;;;;29.87;43.21;101045.91;4970679;28;21113;-80
2023/08/14 08:29:14;;;;;;;18.88;5.63;;;;;;;29.97;44.13;101046.13;4971440;28;20026;-77
2023/08/14 08:31:39;;;;;;;28.25;6.10;;;;;;;29.99;43.33;101045.88;4970688;28;20041;-76
2023/08/14 08:34:05;;;;;;;12.10;5.13;;;;;;;30.05;43.33;101058.78;4971824;28;20027;-79
2023/08/14 08:36:30;;;;;;;33.22;6.05;;;;;;;30.00;43.00;101061.47;4970356;28;20042;-83
2023/08/14 08:38:56;;;;;;;114.60;9.57;;;;;;;29.81;42.67;101040.44;4971552;28;20059;-78
2023/08/14 08:41:29;;;;;;;15.73;4.90;;;;;;;29.78;43.03;101036.22;4970524;28;20035;-81
2023/08/14 08:44:10;;;;;;;42.55;7.50;;;;;;;29.85;43.22;101053.59;4970539;28;20049;-81
2023/08/14 08:46:37;;;;;;;16.27;4.57;;;;;;;30.02;42.67;101057.34;4970281;28;20031;-82
2023/08/14 08:49:04;;;;;;;17.38;4.97;;;;;;;30.03;42.47;101034.06;4970233;28;20039;-81
2023/08/14 08:51:33;;;;;;;14.48;4.00;;;;;;;30.06;42.64;101057.72;4970877;28;20023;-75
2023/08/14 08:54:00;;;;;;;23.63;6.18;;;;;;;30.16;41.44;101042.13;4970399;28;20085;-76
2023/08/14 08:56:26;;;;;;;24.13;6.10;;;;;;;30.20;41.28;101051.66;4970438;28;20031;-76
2023/08/14 08:58:52;;;;;;;38.55;6.30;;;;;;;30.34;40.73;101051.38;4970341;28;20042;-75
2023/08/14 09:01:18;;;;;;;31.08;6.20;;;;;;;30.45;40.76;101053.34;4970377;28;20466;-76
2023/08/14 09:03:45;;;;;;;22.17;4.22;;;;;;;30.43;40.88;101047.16;4969732;28;20031;-76
2023/08/14 09:06:11;;;;;;;16.00;4.35;;;;;;;30.33;40.11;101044.16;4970240;28;20035;-75
2023/08/14 09:08:36;;;;;;;10.93;4.20;;;;;;;30.46;40.88;101060.56;4970438;28;20091;-78
2023/08/14 09:11:02;;;;;;;18.85;4.80;;;;;;;30.49;40.60;101049.81;4970387;28;20046;-85
2023/08/14 09:13:28;;;;;;;22.15;5.15;;;;;;;30.63;39.51;101059.56;4970763;28;20027;-87
2023/08/14 09:15:53;;;;;;;17.10;4.82;;;;;;;30.61;38.93;101035.91;4970757;28;20455;-83
2023/08/14 09:18:18;;;;;;;22.80;5.57;;;;;;;30.69;39.40;101029.97;4958121;28;20488;-87
2023/08/14 09:20:44;;;;;;;16.40;4.93;;;;;;;30.75;39.21;101048.41;4955085;29;20035;-77
2023/08/14 09:23:13;;;;;;;31.80;5.65;;;;;;;30.80;38.29;101045.72;4955296;29;20033;-83
2023/08/14 09:25:42;;;;;;;17.98;4.80;;;;;;;30.71;38.40;101044.44;4955077;29;20046;-83
2023/08/14 09:28:09;;;;;;;26.67;5.22;;;;;;;30.76;39.54;101020.38;4955784;28;20559;-85
2023/08/14 09:30:38;;;;;;;17.10;4.35;;;;;;;30.87;39.55;101023.34;4955325;28;20031;-90
2023/08/14 09:33:09;;;;;;;11.10;4.97;;;;;;;30.97;39.68;101024.44;4960641;28;20100;-84
2023/08/14 09:35:35;;;;;;;8.77;4.82;;;;;;;30.94;38.95;101002.72;4971518;28;20130;-86
2023/08/14 09:38:01;;;;;;;22.98;4.88;;;;;;;31.02;39.35;101021.75;4955226;28;20066;-83
2023/08/14 09:40:27;;;;;;;27.63;6.28;;;;;;;31.06;39.10;100995.16;4955569;29;20087;-82
2023/08/14 09:42:53;;;;;;;20.10;4.50;;;;;;;31.15;38.28;101027.00;4955752;29;20031;-86
2023/08/14 09:45:23;;;;;;;10.73;4.57;;;;;;;31.06;38.21;101028.50;4955472;29;20057;-83
2023/08/14 09:47:50;;;;;;;22.38;4.55;;;;;;;31.13;38.77;101029.16;4955685;28;20038;-83
2023/08/14 09:50:16;;;;;;;18.80;4.75;;;;;;;31.04;39.07;101047.34;4954696;28;20089;-79
2023/08/14 09:52:42;;;;;;;28.70;5.88;;;;;;;31.09;39.63;101016.88;4956415;28;20027;-92
2023/08/14 09:55:08;;;;;;;10.15;4.43;;;;;;;31.08;38.64;100987.41;4954821;29;20035;-82
2023/08/14 09:57:34;;;;;;;14.82;4.97;;;;;;;31.20;37.95;101010.41;4955348;29;20026;-81
2023/08/14 10:00:00;;;;;;;15.35;5.15;;;;;;;31.35;38.06;101025.66;4954746;29;20043;-81
2023/08/14 10:02:26;;;;;;;15.00;5.28;;;;;;;31.35;38.04;101020.09;4955014;28;20105;-80
2023/08/14 10:04:53;;;;;;;16.95;4.82;;;;;;;31.35;37.90;101036.78;4955203;29;20035;-86
2023/08/14 10:07:21;;;;;;;15.98;5.63;;;;;;;31.45;38.09;101031.41;4955278;29;20034;-78
2023/08/14 10:09:54;;;;;;;11.75;5.25;;;;;;;31.47;37.46;101027.25;4954582;28;20030;-81
2023/08/14 10:12:33;;;;;;;14.35;4.43;;;;;;;31.36;37.74;101013.44;4954468;29;20027;-79
2023/08/14 10:15:09;;;;;;;16.80;4.82;;;;;;;31.20;37.17;101013.19;4955095;29;20498;-86
2023/08/14 10:17:47;;;;;;;28.20;6.43;;;;;;;31.23;37.62;101014.63;4963058;28;20035;-79
2023/08/14 10:20:17;;;;;;;20.90;5.40;;;;;;;31.36;37.37;101025.41;4976311;28;20038;-86
2023/08/14 10:22:43;;;;;;;28.45;5.55;;;;;;;31.39;37.12;101010.16;4979881;28;20114;-83
2023/08/14 10:25:10;;;;;;;17.25;5.25;;;;;;;31.42;37.11;101004.09;4979103;28;20218;-81
2023/08/14 10:27:36;;;;;;;20.27;5.25;;;;;;;31.43;36.78;101003.84;4974218;28;20102;-78
2023/08/14 10:30:54;;;;;;;26.92;5.15;;;;;;;31.52;36.97;101021.84;4972742;28;20033;-81
2023/08/14 10:33:20;;;;;;;15.27;5.15;;;;;;;31.52;36.44;101016.28;4972816;28;20066;-79
2023/08/14 10:35:50;;;;;;;18.02;6.35;;;;;;;31.55;36.70;101020.47;4976833;28;20051;-87
2023/08/14 10:38:16;;;;;;;28.13;5.00;;;;;;;31.70;36.50;101023.50;4976928;28;20059;-94
2023/08/14 10:41:05;;;;;;;25.35;5.43;;;;;;;31.63;37.10;101014.47;4975117;28;20538;-83
2023/08/14 10:43:31;;;;;;;23.88;4.80;;;;;;;31.59;36.22;101030.00;4977330;28;20034;-82
2023/08/14 10:45:56;;;;;;;13.70;5.10;;;;;;;31.59;36.04;101008.59;4977202;28;20034;-90
2023/08/14 10:48:22;;;;;;;16.50;4.95;;;;;;;31.63;36.51;101011.69;4977939;28;20035;-87
2023/08/14 10:50:56;;;;;;;18.45;5.97;;;;;;;31.62;36.07;100983.03;4975054;28;20034;-85
2023/08/14 10:53:22;;;;;;;8.73;4.15;;;;;;;31.83;35.68;101023.97;4975584;28;20030;-81
2023/08/14 10:55:48;;;;;;;18.63;4.90;;;;;;;31.81;35.68;100991.94;4975177;28;20519;-85
2023/08/14 10:58:36;;;;;;;36.97;7.28;;;;;;;31.89;34.85;101004.59;4976940;28;20493;-81
2023/08/14 11:01:14;;;;;;;13.55;4.43;;;;;;;31.84;35.49;100994.22;4981051;28;20030;-83
2023/08/14 11:04:03;;;;;;;14.73;5.03;;;;;;;32.18;35.90;101020.91;4988376;28;20110;-89
2023/08/14 11:07:00;;;;;;;17.33;4.65;;;;;;;31.86;35.06;100986.47;4977279;28;20026;-89
2023/08/14 11:09:33;;;;;;;22.42;5.25;;;;;;;32.11;35.67;101011.09;4977417;28;20043;-80
2023/08/14 11:12:05;;;;;;;37.75;9.60;;;;;;;32.03;35.69;100984.53;4976962;28;20035;-90
2023/08/14 11:14:34;;;;;;;11.02;5.03;;;;;;;31.81;35.95;100986.38;4975512;28;20060;-92
2023/08/14 11:17:01;;;;;;;13.85;5.97;;;;;;;31.86;36.51;100994.84;4973338;28;20422;-87
2023/08/14 11:19:28;;;;;;;18.70;5.45;;;;;;;31.92;36.34;100990.19;4958968;28;20039;-90